Date,TemperatureHighF,TemperatureAvgF,TemperatureLowF,DewpointHighF,DewpointAvgF,DewpointLowF,HumidityHigh,HumidityAvg,HumidityLow,PressureMaxIn,PressureMinIn,WindSpeedMaxMPH,WindSpeedAvgMPH,GustSpeedMaxMPH,PrecipitationSumIn
2013-1-2,71.6,68.8,66.0,66.0,64.5,62.3,98,87,76,30.04,29.96,38,25,39,0.07
2013-1-3,70.0,67.2,65.6,66.5,64.5,63.1,95,91,85,30.06,29.96,42,25,44,0.01
2013-1-4,68.3,66.7,64.7,65.4,64.0,62.5,96,91,85,30.14,29.96,63,35,63,0.05
2013-1-5,70.7,68.3,66.3,65.0,62.6,56.2,93,82,61,30.12,29.98,66,37,68,0.00
2013-1-6,74.4,70.3,67.3,64.0,61.9,56.2,85,75,61,30.11,29.96,56,22,58,0.00
2013-1-7,74.3,69.0,66.8,64.9,62.7,54.9,90,81,52,30.08,29.92,49,22,52,0.00
2013-1-8,72.5,70.0,67.8,64.1,60.9,58.2,80,73,65,29.97,29.86,46,23,49,0.00
2013-1-9,71.8,68.9,67.1,66.0,64.0,61.1,91,85,76,30.01,29.87,48,23,48,0.00
2013-1-10,74.3,69.8,66.9,64.1,61.9,59.8,86,76,64,30.00,29.89,46,17,46,0.00
2013-1-11,72.5,68.5,65.9,65.0,63.1,61.2,92,83,70,29.98,29.88,40,17,40,0.01
2013-1-12,76.6,70.9,67.0,67.1,63.5,57.9,88,78,63,29.99,29.89,19,5,22,0.00
2013-1-13,79.4,71.6,67.8,66.9,63.1,57.9,87,75,60,30.00,29.91,15,4,19,0.00
2013-1-14,76.0,71.1,66.8,67.8,65.1,61.3,95,82,70,30.00,29.85,34,7,34,0.06
2013-1-15,70.8,68.0,66.0,65.8,63.8,61.3,96,87,80,29.97,29.87,20,6,20,0.02
2013-1-16,72.0,67.7,65.3,63.9,59.6,50.9,86,76,49,29.98,29.85,21,7,22,0.00
2013-1-17,71.5,67.0,65.1,63.4,60.4,56.5,85,80,71,29.94,29.84,15,6,16,0.00
2013-1-18,71.2,67.0,64.2,60.6,58.8,56.4,82,75,65,29.96,29.83,29,9,30,0.00
2013-1-19,70.0,66.5,63.8,58.5,54.0,47.3,75,64,53,30.04,29.88,38,19,43,0.00
2013-1-20,68.4,66.1,64.6,59.4,56.1,53.4,80,70,61,30.08,29.95,43,23,44,0.00
2013-1-21,69.2,66.9,65.1,61.3,58.7,56.0,82,75,67,30.14,30.00,50,29,50,0.00
2013-1-22,71.1,67.9,66.6,63.7,60.5,55.4,85,77,58,30.14,30.01,46,26,46,0.00
2013-1-23,72.4,68.5,64.5,64.0,61.5,57.2,90,78,71,30.07,29.98,45,15,45,0.00
2013-1-24,72.0,69.0,66.8,63.6,61.9,59.4,83,78,68,30.09,30.01,21,5,22,0.00
2013-1-25,75.9,70.0,66.0,65.8,62.6,58.9,87,78,69,30.08,29.98,21,4,22,0.00
2013-1-26,77.0,70.2,65.8,63.7,61.1,58.8,85,73,56,30.06,29.95,14,5,17,0.00
2013-1-27,75.3,71.2,69.0,64.7,61.4,55.8,85,72,62,30.01,29.88,24,8,29,0.07
2013-1-28,72.8,69.4,66.0,65.5,62.7,55.0,94,80,55,30.01,29.90,22,6,22,0.07
2013-1-29,70.1,67.9,66.1,65.0,63.3,62.1,94,85,77,30.02,29.95,13,3,13,0.70
2013-1-30,72.3,68.7,67.4,65.9,64.2,61.7,91,86,79,30.10,30.02,21,7,21,0.03
2013-1-31,69.6,67.7,65.1,66.9,64.6,60.3,95,90,73,30.13,30.02,37,17,37,0.37
2013-2-1,69.7,67.5,65.5,64.5,60.7,57.3,92,79,66,30.13,30.01,53,27,54,0.00
2013-2-2,71.7,67.9,65.8,62.3,59.3,56.9,84,74,65,30.17,30.02,50,20,54,0.00
2013-2-3,68.5,66.3,64.3,59.5,57.4,55.2,79,73,66,30.19,30.05,50,27,51,0.00
2013-2-4,69.5,66.1,62.8,63.2,60.6,55.3,92,83,68,30.12,30.01,50,31,53,0.00
2013-2-5,69.0,66.9,63.6,62.7,60.6,58.7,93,80,72,30.12,29.99,44,24,46,0.02
2013-2-6,68.8,66.7,62.8,65.0,63.7,60.9,95,90,85,30.11,30.00,39,19,39,0.29
2013-2-7,72.3,69.4,67.5,66.3,63.3,57.6,89,81,60,30.14,30.00,42,22,44,0.29
2013-2-8,71.5,69.2,67.1,64.5,62.0,59.4,86,78,68,30.15,30.02,41,16,42,0.00
2013-2-9,69.7,68.1,66.5,64.9,62.7,58.8,89,83,70,30.17,30.04,37,19,37,0.00
2013-2-10,70.5,68.0,65.1,64.9,63.0,60.7,94,84,75,30.22,30.05,45,25,45,0.05
2013-2-11,68.8,66.6,64.9,64.0,61.9,58.3,92,85,73,30.22,30.11,38,23,41,0.00
2013-2-12,67.7,65.6,61.7,61.1,58.9,55.1,92,79,72,30.20,30.07,40,24,41,0.00
2013-2-13,67.2,65.5,64.4,58.7,56.4,53.4,80,72,66,30.16,30.02,34,20,37,0.00
2013-2-14,68.3,65.5,62.9,61.0,58.5,56.2,86,78,66,30.12,29.99,41,22,41,0.00
2013-2-15,71.5,67.8,64.2,64.3,60.4,56.0,85,77,65,30.12,29.98,48,23,48,0.00
2013-2-16,70.3,66.8,63.9,63.1,60.7,56.7,91,81,65,30.14,30.01,51,32,52,0.00
2013-2-17,68.4,66.2,63.5,63.0,60.5,58.2,92,82,74,30.19,30.03,51,32,52,0.03
2013-2-18,69.2,66.0,61.8,61.9,60.0,56.1,94,81,69,30.16,30.01,53,33,55,0.01
2013-2-19,69.0,66.2,62.3,61.9,59.1,54.0,91,78,62,30.16,30.01,51,30,51,0.00
2013-2-20,69.1,67.2,65.4,63.5,61.8,59.7,89,83,77,30.17,30.04,47,29,47,0.00
2013-2-21,68.6,66.8,64.8,64.6,62.9,60.2,94,87,77,30.16,30.06,44,25,45,0.12
2013-2-22,69.3,67.4,65.7,65.4,62.7,58.9,93,85,70,30.15,30.00,50,28,55,0.00
2013-2-23,71.7,67.5,64.4,63.8,60.8,56.1,92,80,61,30.14,30.01,48,25,49,0.06
2013-2-24,68.7,66.6,65.1,62.9,61.1,59.3,87,83,76,30.14,29.99,44,28,44,0.06
2013-2-25,69.6,66.9,64.6,63.3,61.7,59.5,89,83,77,30.17,30.02,42,27,45,0.00
2013-2-26,70.0,67.2,64.7,62.1,60.5,57.9,88,79,70,30.16,30.03,52,30,52,0.00
2013-2-27,70.2,67.4,65.4,61.9,59.0,55.8,81,75,62,30.19,30.07,49,26,49,0.00
2013-2-28,70.3,67.3,65.5,60.8,58.0,53.1,79,72,56,30.19,30.05,53,30,53,0.00
2013-3-1,68.8,66.6,63.8,61.3,58.3,54.5,89,75,63,30.18,30.05,48,33,51,0.00
2013-3-2,69.8,66.3,64.5,60.9,57.3,51.2,85,73,53,30.21,30.04,48,28,57,0.00
2013-3-3,69.2,66.8,65.6,60.4,56.7,52.6,83,70,60,30.21,30.09,45,28,57,0.00
2013-3-4,69.6,66.6,65.0,60.2,57.5,53.9,81,73,62,30.20,30.10,42,26,45,0.00
2013-3-5,69.6,66.5,64.8,61.5,58.7,55.3,84,76,64,30.17,30.06,31,21,37,0.00
2013-3-6,70.9,67.0,64.7,62.1,60.4,58.2,85,80,71,30.16,30.06,30,16,40,0.00
2013-3-7,70.3,67.7,65.9,64.0,60.9,58.0,85,79,71,30.12,30.01,23,13,28,0.00
2013-3-8,77.3,70.4,66.8,64.0,60.9,54.3,80,72,46,30.03,29.91,15,7,23,0.00
2013-3-9,71.5,69.5,68.2,66.1,64.2,61.9,86,83,79,29.99,29.90,29,12,39,0.00
2013-3-10,72.2,69.3,66.1,66.8,63.8,60.9,88,83,73,30.05,29.89,32,8,32,0.29
2013-3-11,70.5,67.9,65.9,65.1,63.1,60.1,88,85,81,30.08,29.99,17,7,17,0.00
2013-3-12,70.1,67.5,65.7,64.8,62.6,58.5,88,84,76,30.12,30.00,20,10,20,0.00
2013-3-13,68.7,66.8,65.0,61.0,59.9,58.4,82,79,75,30.11,30.01,24,13,28,0.00
2013-3-14,67.7,66.6,65.8,59.8,58.9,58.1,80,76,74,30.10,30.05,10,3,11,0.00
2013-3-15,75.3,70.9,67.4,60.6,56.8,47.8,77,62,41,30.01,29.88,24,5,26,0.05
2013-3-16,69.7,66.1,63.7,62.6,58.6,54.8,91,77,65,30.05,29.92,22,4,22,0.00
2013-3-17,67.8,65.0,63.1,58.3,55.1,50.3,76,70,62,30.08,29.96,25,8,28,0.00
2013-3-18,68.6,65.2,62.7,59.2,57.6,54.1,80,76,71,30.07,29.96,23,10,30,0.00
2013-3-19,75.6,69.8,64.8,62.6,57.4,51.5,78,65,44,30.06,29.95,27,5,27,0.00
2013-3-20,69.5,68.3,67.2,59.8,58.2,56.2,76,70,66,30.03,29.98,13,6,13,0.00
2013-3-22,78.6,72.1,69.2,66.9,62.8,59.6,84,73,59,30.05,29.94,20,5,22,0.00
2013-3-23,70.3,68.5,65.2,65.7,63.4,60.4,95,84,72,30.04,29.94,29,6,29,0.07
2013-3-24,72.5,70.0,67.7,66.0,63.7,59.6,90,81,69,30.05,29.95,32,14,32,0.11
2013-3-25,72.5,70.4,68.4,67.6,63.6,57.0,88,79,60,30.04,29.95,26,10,27,0.20
2013-3-26,72.9,70.4,68.2,65.7,61.8,55.2,85,74,57,30.07,29.96,27,11,27,0.00
2013-3-27,71.5,70.4,69.1,64.2,59.8,57.4,82,69,64,30.03,29.95,27,10,27,0.00
2013-3-28,69.7,68.0,66.0,64.9,63.3,61.4,91,85,79,30.06,29.95,40,22,40,0.15
2013-3-29,68.4,65.6,64.1,63.9,62.9,61.9,95,91,81,30.09,30.00,32,16,32,0.26
2013-3-30,71.3,66.7,64.2,65.7,61.9,54.7,94,85,64,30.09,29.99,19,6,23,0.45
2013-3-31,67.6,65.3,62.5,60.5,55.4,52.3,88,71,62,30.07,29.98,30,10,30,0.00
2013-4-1,68.2,65.3,62.1,57.4,54.5,49.5,73,68,63,30.03,29.93,19,5,20,0.00
2013-4-2,67.5,65.2,62.2,57.8,55.1,51.4,79,70,65,30.11,30.00,29,12,30,0.00
2013-4-3,68.8,66.0,63.5,60.0,58.3,56.3,81,76,71,30.12,30.01,28,13,30,0.00
2013-4-4,72.2,68.4,65.8,62.7,59.6,55.7,80,74,68,30.12,30.03,22,9,25,0.00
2013-4-5,71.1,69.1,67.8,63.7,61.8,60.6,80,78,75,30.13,30.06,32,18,35,0.00
2013-4-6,77.5,74.3,69.3,68.0,65.9,62.5,81,75,70,30.16,30.05,23,8,23,0.00
2013-4-7,74.8,71.4,68.5,67.5,65.1,60.7,88,81,68,30.19,30.07,36,12,36,0.00
2013-4-8,73.5,70.6,67.7,66.1,63.2,59.8,86,78,68,30.11,29.98,33,14,33,0.00
2013-4-9,74.7,71.2,68.5,66.8,63.3,60.2,82,76,68,30.10,29.97,31,12,33,0.00
2013-4-10,70.2,69.5,68.8,62.9,61.6,60.4,78,76,73,30.08,30.03,17,4,17,0.00
2013-4-15,79.0,73.5,69.7,68.2,65.7,60.8,87,77,56,30.03,29.97,22,7,25,0.00
2013-4-16,78.3,73.2,70.1,67.5,65.4,62.0,86,77,65,30.13,30.02,30,9,30,0.00
2013-4-17,74.8,71.3,69.2,66.9,64.1,61.1,90,78,68,30.13,30.04,36,17,37,0.00
2013-4-18,74.6,71.3,68.6,66.8,64.6,61.8,85,80,75,30.15,30.05,39,20,40,0.00
2013-4-19,75.7,71.7,67.5,66.9,65.1,62.6,87,80,71,30.11,30.01,31,14,33,0.00
2013-4-20,80.9,73.0,67.8,67.7,64.9,61.9,83,76,60,30.10,30.02,20,5,22,0.00
2013-4-21,79.5,71.8,69.0,67.2,64.5,60.3,88,78,58,30.07,29.98,16,5,17,0.00
2013-4-22,74.7,71.3,70.3,65.5,63.2,61.1,81,76,69,30.06,29.99,16,4,16,0.00
2013-4-23,78.5,73.5,71.3,68.8,66.7,64.4,86,79,65,30.09,30.00,23,7,23,0.00
2013-4-24,75.7,72.6,68.8,68.1,64.6,59.7,89,77,59,30.12,30.01,33,12,33,0.00
2013-4-25,74.9,72.6,69.7,66.1,62.3,54.2,83,71,49,30.09,29.96,42,20,43,0.00
2013-4-26,73.5,71.1,68.8,64.4,61.5,57.7,82,72,63,30.06,29.96,46,20,46,0.00
2013-4-27,79.8,73.0,69.2,65.1,61.3,55.9,76,67,54,30.08,29.96,24,6,24,0.00
2013-4-28,81.8,73.3,69.1,67.0,63.8,59.9,83,73,51,30.05,29.95,24,4,29,0.00
2013-4-29,78.6,73.3,69.4,66.9,64.5,62.7,84,74,63,30.02,29.92,24,5,26,0.01
2013-4-30,79.4,73.5,69.5,68.5,64.5,60.3,83,74,62,30.05,29.96,25,6,25,0.01
2013-5-1,76.6,72.7,69.5,65.9,62.7,57.8,83,71,59,30.09,29.99,33,14,34,0.00
2013-5-2,77.5,72.5,68.9,65.7,63.8,62.3,82,74,60,30.10,30.02,28,8,28,0.00
2013-5-3,77.1,72.1,69.3,64.4,62.8,61.1,78,73,62,30.09,29.98,24,6,25,0.00
2013-5-4,77.4,72.2,68.7,65.2,62.7,58.8,83,72,62,30.04,29.92,19,5,21,0.00
2013-5-5,74.2,70.9,68.2,67.1,64.3,61.5,88,80,70,29.98,29.88,30,7,30,0.26
2013-5-6,70.5,68.7,67.2,68.3,66.0,63.6,95,91,81,30.00,29.89,19,5,25,0.32
2013-5-7,77.9,70.8,68.4,68.0,64.9,62.9,85,82,70,30.02,29.93,23,6,23,0.00
2013-5-8,76.7,71.5,68.6,68.9,66.4,63.5,89,84,73,30.05,29.95,17,5,19,0.00
2013-5-9,79.3,73.0,69.6,70.0,67.1,64.0,88,82,69,30.11,29.98,18,6,21,0.00
2013-5-10,74.1,71.2,68.6,68.9,67.6,65.6,96,89,83,30.14,30.04,27,13,28,0.10
2013-5-11,71.3,68.7,65.9,67.5,66.3,63.8,96,92,86,30.13,30.03,35,17,35,0.22
2013-5-12,70.4,68.1,66.9,68.1,66.5,65.4,97,95,88,30.14,30.01,47,23,47,0.08
2013-5-13,72.3,70.1,68.1,69.1,67.7,66.3,96,92,86,30.10,30.01,47,21,47,0.00
2013-5-14,70.9,70.9,70.9,68.1,68.1,68.1,91,91,91,30.08,30.08,21,21,21,0.00
2013-5-15,73.5,71.7,70.3,67.0,65.6,63.5,87,81,74,30.15,30.06,43,19,43,0.00
2013-5-16,71.7,70.2,69.5,66.7,65.2,63.4,87,84,77,30.14,30.05,48,26,48,0.00
2013-5-17,74.3,72.3,70.0,66.2,63.6,59.2,84,74,61,30.08,29.98,39,18,41,0.00
2013-5-18,76.0,72.0,68.5,66.6,63.4,60.5,85,74,65,30.05,29.97,31,11,31,0.54
2013-5-19,74.0,70.8,68.5,67.7,64.6,61.5,88,81,73,30.03,29.92,21,7,23,0.01
2013-5-20,72.8,69.1,66.5,66.2,64.0,61.4,89,84,76,30.03,29.93,18,6,18,0.07
2013-5-21,77.3,71.7,67.9,67.9,64.7,61.8,90,79,67,30.04,29.95,23,5,28,0.00
2013-5-22,79.8,74.2,70.6,69.4,65.4,60.7,87,75,61,30.07,29.97,16,5,18,0.00
2013-5-23,77.0,73.3,70.4,68.8,66.5,63.9,87,79,67,30.09,29.97,35,14,35,0.00
2013-5-24,77.3,72.3,70.2,67.9,65.5,62.9,87,79,62,30.09,30.00,40,22,40,0.00
2013-5-25,74.0,71.2,69.3,68.2,66.4,65.0,92,85,79,30.11,29.99,47,25,47,0.00
2013-5-26,74.9,71.8,69.4,67.4,65.8,64.2,86,82,74,30.10,30.02,41,23,44,0.00
2013-5-27,74.8,72.3,70.1,66.4,64.3,62.2,83,76,68,30.12,30.03,39,17,39,0.00
2013-5-28,76.3,72.5,70.6,68.2,64.4,61.5,87,76,70,30.10,30.04,28,10,29,0.01
2013-5-29,78.2,77.2,75.7,69.4,68.4,67.5,77,75,72,30.08,30.07,14,6,15,0.00
2013-5-30,77.3,73.5,70.1,68.8,67.3,65.2,92,81,72,30.03,29.94,36,17,37,0.00
2013-5-31,77.7,73.3,70.3,69.4,67.1,64.8,89,81,72,30.07,29.96,34,13,34,0.00
2013-6-1,76.4,72.9,70.9,69.8,66.8,62.1,89,81,70,30.10,29.98,42,20,49,0.00
2013-6-2,73.8,72.1,70.7,69.7,67.0,63.4,92,84,72,30.10,29.99,47,28,53,0.00
2013-6-3,75.2,72.2,70.4,67.2,64.9,60.3,86,78,63,30.11,29.99,50,28,57,0.00
2013-6-4,75.8,71.8,70.0,67.6,65.0,60.1,88,79,63,30.07,29.96,41,25,46,0.00
2013-6-5,73.3,70.7,68.3,67.2,65.3,63.7,87,83,76,30.06,29.99,42,27,45,0.00
2013-6-6,73.6,71.2,67.2,66.7,65.1,63.9,90,81,74,30.07,29.95,37,23,44,0.00
2013-6-7,73.3,70.1,66.0,65.5,63.5,61.2,91,80,70,30.08,29.95,43,24,49,0.00
2013-6-8,74.1,70.4,67.5,66.8,64.2,61.5,88,81,73,30.07,29.98,38,22,43,0.00
2013-6-9,73.7,72.2,70.3,66.6,65.5,63.8,83,79,75,30.10,30.05,32,19,39,0.00
2013-6-10,73.5,71.7,69.5,66.9,64.9,61.4,90,79,66,30.08,30.00,35,20,43,0.00
2013-6-11,74.9,71.9,70.4,66.2,64.2,61.1,86,77,64,30.04,29.98,35,23,42,0.00
2013-6-12,74.4,72.8,72.0,61.9,60.7,59.5,69,66,64,30.05,30.00,32,23,44,0.00
2013-6-13,74.8,72.0,70.1,67.6,66.1,64.1,91,82,74,30.11,30.01,47,29,54,0.00
2013-6-14,74.4,72.1,69.4,66.9,65.2,62.0,89,79,71,30.10,29.98,45,24,45,0.00
2013-6-15,73.7,71.5,69.3,66.8,64.0,57.6,87,77,60,30.04,29.92,45,23,45,0.00
2013-6-16,75.7,72.6,69.3,66.1,63.9,59.7,85,74,63,30.05,29.92,43,21,45,0.00
2013-6-17,75.3,72.4,69.6,67.9,65.0,61.5,86,78,69,30.06,29.97,38,19,39,0.00
2013-6-18,77.3,73.5,70.8,68.2,66.5,64.3,85,79,73,30.08,29.97,42,22,43,0.00
2013-6-19,77.0,73.6,70.6,65.9,63.1,59.5,84,70,55,30.09,30.00,40,17,41,0.00
2013-6-20,75.9,72.0,67.7,67.4,65.2,62.2,91,79,67,30.08,29.98,35,16,36,0.00
2013-6-21,73.7,71.3,69.0,67.4,65.1,61.8,91,81,68,30.07,29.96,44,23,44,0.00
2013-6-22,75.7,71.5,69.2,67.7,65.0,62.6,87,80,69,30.12,29.97,53,28,54,0.00
2013-6-23,74.8,71.7,68.4,67.8,65.9,62.8,91,82,74,30.13,30.02,49,26,49,0.00
2013-6-24,75.6,71.6,67.7,66.8,63.7,58.3,91,77,60,30.12,30.03,40,22,41,0.00
2013-6-25,72.4,70.0,68.6,68.4,66.5,64.8,93,89,82,30.11,30.02,38,17,38,0.08
2013-6-26,73.2,71.1,69.6,67.0,65.7,63.6,89,83,78,30.10,29.99,36,19,36,0.00
2013-6-27,75.3,72.0,69.3,65.9,63.4,59.0,86,75,62,30.05,29.96,39,19,39,0.00
2013-6-28,74.8,71.3,68.5,67.0,64.6,60.4,90,80,69,30.02,29.93,40,20,41,0.01
2013-6-29,75.5,71.4,69.4,66.8,63.1,59.3,82,75,68,30.01,29.93,38,18,39,0.00
2013-6-30,75.3,73.0,71.0,67.5,65.1,61.2,86,76,64,30.06,29.96,37,21,37,0.00
2013-7-1,75.7,72.1,69.0,68.1,65.4,61.3,90,80,67,30.04,29.94,41,23,44,0.00
2013-7-2,74.4,71.3,67.5,68.2,65.3,62.2,90,81,70,30.02,29.93,33,19,36,0.01
2013-7-3,75.1,72.3,69.9,67.4,64.5,61.6,87,77,68,30.03,29.94,30,16,33,0.00
2013-7-4,75.3,72.0,69.2,67.0,65.5,62.5,89,80,71,30.07,29.97,28,14,29,0.00
2013-7-5,75.0,72.3,70.9,68.7,65.7,60.7,88,80,69,30.06,29.98,24,12,27,0.00
2013-7-6,76.8,72.6,70.3,67.5,65.3,62.4,86,78,67,30.05,29.98,23,8,25,0.00
2013-7-7,76.8,72.9,70.0,67.2,62.3,47.3,85,70,38,30.03,29.89,33,12,33,0.00
2013-7-9,78.1,75.0,72.5,68.7,67.2,64.2,85,77,67,30.14,30.01,50,29,54,0.00
2013-7-10,74.7,72.9,71.7,67.9,66.3,64.1,87,80,70,30.13,30.06,53,32,53,0.00
2013-7-11,77.0,73.0,70.6,66.9,65.2,62.9,85,77,63,30.09,29.98,53,29,55,0.00
2013-7-12,75.2,72.4,70.1,67.6,64.8,58.2,86,77,60,30.08,29.96,43,23,45,0.00
2013-7-13,76.0,72.6,70.0,65.8,64.1,61.5,84,75,65,30.04,29.92,42,21,42,0.00
2013-7-14,78.9,73.3,70.3,65.9,62.6,54.6,78,69,54,30.02,29.90,42,16,42,0.00
2013-7-15,77.7,73.9,69.2,67.3,64.2,62.0,84,72,63,30.03,29.92,31,12,31,0.00
2013-7-16,77.6,74.4,71.5,67.2,64.4,60.7,78,71,63,30.02,29.90,34,15,38,0.00
2013-7-17,76.5,73.3,71.0,67.6,63.4,56.2,81,72,53,30.03,29.92,40,19,41,0.00
2013-7-18,75.9,73.5,71.5,68.3,64.8,62.4,85,74,68,30.06,29.95,37,17,37,0.00
2013-7-19,79.1,75.0,71.7,68.5,65.9,62.7,82,74,67,30.09,29.96,40,14,40,0.00
2013-7-20,77.0,73.4,70.9,67.9,64.7,60.7,84,74,66,30.08,29.96,46,20,46,0.00
2013-7-21,76.3,73.4,70.8,68.1,64.2,58.5,90,73,60,30.05,29.92,40,21,41,0.00
2013-7-22,80.7,75.0,71.0,72.5,70.1,67.1,91,85,73,30.02,29.94,24,7,27,0.04
2013-7-23,79.3,75.8,73.4,71.5,69.8,68.2,88,82,73,30.03,29.93,27,5,29,0.04
2013-7-24,77.3,73.6,70.0,68.9,65.9,61.5,91,77,66,30.02,29.88,43,19,43,0.00
2013-7-25,76.1,72.9,69.5,67.1,64.6,61.4,91,75,64,30.01,29.88,43,20,43,0.00
2013-7-26,78.0,73.4,70.4,68.3,65.5,62.5,84,77,70,30.06,29.92,42,20,43,0.00
2013-7-27,76.4,73.2,70.2,67.1,64.4,59.5,89,74,59,30.06,29.91,48,24,48,0.00
2013-7-28,77.4,73.3,69.7,70.4,66.3,61.7,94,79,65,30.02,29.91,37,21,38,0.01
2013-7-29,75.3,73.1,69.7,73.8,70.9,66.6,96,93,75,30.00,29.77,47,20,47,1.25
2013-7-30,81.0,77.1,74.2,72.9,70.1,67.5,88,79,71,30.09,29.98,47,14,47,0.00
2013-7-31,79.1,74.4,72.3,70.0,66.9,63.4,88,78,63,30.10,29.95,55,32,56,0.00
2013-8-1,76.5,73.7,70.8,67.4,64.3,58.5,88,73,57,30.09,29.96,50,27,53,0.00
2013-8-2,76.5,73.0,70.8,67.9,66.2,64.0,87,79,67,30.05,29.96,39,21,41,0.00
2013-8-3,75.8,73.0,70.7,67.5,65.2,61.8,87,77,65,30.05,29.96,40,22,40,0.00
2013-8-4,76.0,73.3,70.2,68.9,66.0,63.5,87,78,71,30.04,29.94,43,21,43,0.00
2013-8-5,76.9,73.0,69.6,69.3,67.3,64.4,94,83,73,30.04,29.93,40,20,43,0.00
2013-8-6,75.3,73.0,71.1,67.8,65.8,61.9,86,78,68,30.05,29.96,36,19,38,0.00
2013-8-7,76.5,72.8,70.7,66.9,65.2,61.4,86,77,63,30.08,29.97,37,20,37,0.00
2013-8-8,77.3,73.0,71.2,67.8,65.3,62.9,86,77,66,30.10,29.99,34,17,38,0.00
2013-8-9,76.8,72.6,70.2,70.8,67.4,61.5,98,84,64,30.08,29.94,40,20,40,0.23
2013-8-10,75.4,72.8,70.6,71.9,70.5,68.6,98,93,81,30.04,29.96,42,18,44,0.27
2013-8-11,78.2,74.5,72.4,70.8,68.8,67.2,91,83,73,30.04,29.95,50,25,50,0.00
2013-8-12,74.7,72.5,71.4,68.7,67.3,66.1,90,84,76,30.08,29.96,43,27,45,0.00
2013-8-13,76.2,72.7,70.8,69.1,66.9,63.4,89,82,70,30.05,29.94,44,24,44,0.00
2013-8-14,75.5,73.6,71.6,68.0,65.6,62.2,84,76,66,30.04,29.92,43,22,47,0.00
2013-8-15,77.1,73.0,71.3,68.1,65.8,60.8,89,79,62,30.05,29.94,46,23,46,0.00
2013-8-16,74.3,72.7,70.8,70.0,67.8,63.1,89,84,72,30.07,29.94,42,24,48,0.00
2013-8-17,76.0,73.0,70.7,67.5,65.8,62.7,86,78,68,30.05,29.92,44,23,45,0.00
2013-8-18,76.2,73.3,71.1,68.3,65.7,62.3,84,77,68,30.04,29.92,43,20,43,0.00
2013-8-19,74.8,72.8,70.3,67.4,64.2,56.0,90,75,53,30.04,29.95,36,15,36,0.24
2013-8-20,79.1,74.5,70.6,69.1,66.7,63.7,84,77,70,30.02,29.92,22,6,24,0.01
2013-8-21,78.3,74.7,71.5,70.2,67.4,63.1,87,78,69,29.99,29.89,27,8,27,0.00
2013-8-22,79.9,75.8,72.0,69.6,66.6,63.8,83,73,65,30.00,29.89,33,13,33,0.00
2013-8-23,76.6,74.2,70.6,68.7,66.4,63.2,93,77,67,30.01,29.91,34,19,35,0.00
2013-8-24,78.4,75.0,72.6,69.3,66.3,62.9,82,75,64,30.05,29.93,38,20,41,0.00
2013-8-25,77.3,74.0,71.9,69.4,67.1,64.0,88,79,64,30.09,29.98,41,23,41,0.00
2013-8-26,79.2,74.4,72.1,69.2,66.9,63.2,87,78,60,30.11,30.00,41,21,41,0.00
2013-8-27,76.9,73.1,71.4,68.7,66.0,61.9,89,79,62,30.10,29.98,46,22,46,0.00
2013-8-28,77.1,74.2,71.2,69.1,66.7,59.1,90,78,56,30.04,29.90,29,17,30,0.03
2013-8-29,77.1,74.6,71.7,68.1,65.9,63.0,86,75,65,29.98,29.87,33,15,33,0.00
2013-8-30,78.8,75.0,71.5,69.5,66.3,61.8,82,75,64,30.04,29.94,30,12,32,0.00
2013-8-31,78.3,74.5,71.2,67.7,65.2,61.6,84,73,61,30.05,29.93,46,21,47,0.00
2013-9-1,77.3,73.9,70.6,68.6,65.3,59.9,86,75,65,30.03,29.91,45,23,45,0.00
2013-9-2,77.2,73.4,70.4,67.7,65.8,62.3,88,77,67,30.05,29.92,47,22,47,0.00
2013-9-3,77.0,73.6,71.0,67.8,64.6,56.5,86,74,52,30.04,29.93,33,19,35,0.00
2013-9-4,78.0,73.7,70.4,67.2,63.9,59.8,83,72,59,30.04,29.94,30,14,33,0.00
2013-9-5,76.9,73.8,71.3,67.6,64.2,59.2,79,72,61,30.11,30.00,27,12,29,0.00
2013-9-6,77.3,74.2,69.8,68.7,65.0,59.9,92,74,56,30.09,29.99,30,14,31,0.02
2013-9-7,78.9,75.0,70.6,70.7,68.6,66.5,92,81,74,30.07,29.94,39,20,43,0.01
2013-9-8,81.4,76.8,73.1,69.5,67.0,63.2,85,72,62,30.05,29.95,38,17,40,0.00
2013-9-9,78.5,74.9,72.2,67.8,66.2,63.4,85,75,63,30.10,29.97,41,20,43,0.00
2013-9-10,77.1,73.9,71.8,69.5,67.2,64.4,88,80,69,30.08,29.96,40,21,40,0.00
2013-9-11,77.0,74.6,72.6,69.4,67.3,63.4,86,78,69,30.09,29.96,35,19,39,0.00
2013-9-12,78.6,75.7,73.6,70.7,68.0,60.4,87,77,61,30.03,29.89,35,18,36,0.03
2013-9-13,79.3,75.6,72.7,69.9,66.8,61.2,86,74,59,29.95,29.83,42,21,42,0.00
2013-9-14,78.5,75.4,72.6,69.8,67.3,62.3,84,76,67,29.96,29.84,38,15,38,0.00
2013-9-15,78.6,75.6,73.5,69.4,66.7,60.7,83,74,60,29.98,29.87,49,22,50,0.00
2013-9-16,77.6,74.5,71.2,69.4,67.5,64.4,88,79,68,30.06,29.92,46,26,47,0.00
2013-9-17,76.9,73.6,69.6,69.5,67.7,64.5,94,82,72,30.05,29.91,51,25,51,0.05
2013-9-18,78.4,74.7,72.2,69.0,66.3,61.6,87,76,63,30.01,29.91,48,22,49,0.00
2013-9-19,77.5,74.6,72.1,68.5,66.1,59.5,85,75,58,30.04,29.92,40,23,40,0.00
2013-9-20,76.6,73.9,72.6,67.9,65.9,62.3,84,76,67,30.04,29.96,44,25,44,0.00
2013-9-21,78.8,74.5,70.0,68.1,64.9,61.9,86,72,62,30.04,29.93,48,23,48,0.00
2013-9-22,75.2,73.1,71.9,68.6,66.1,62.3,84,79,68,30.04,29.96,41,21,41,0.00
2013-9-23,79.7,74.7,71.2,68.7,66.6,63.1,87,76,62,30.02,29.89,43,24,43,0.00
2013-9-24,77.5,74.0,70.2,69.5,66.2,60.7,88,77,63,30.02,29.90,41,20,46,0.01
2013-9-25,77.0,73.9,70.1,68.5,66.3,63.3,86,77,70,30.06,29.93,43,21,43,0.01
2013-9-26,80.5,74.9,72.0,68.1,65.1,61.1,81,72,58,30.00,29.91,34,13,34,0.00
2013-9-27,80.1,75.1,72.6,68.0,65.5,61.6,82,72,62,30.09,29.95,45,17,45,0.00
2013-9-28,77.3,73.7,70.6,68.8,67.2,63.4,88,80,66,30.09,29.96,46,25,46,0.00
2013-9-29,75.5,73.2,71.2,68.7,66.2,61.5,85,79,69,30.07,29.93,37,19,38,0.00
2013-9-30,78.4,74.8,72.3,68.4,65.5,62.6,82,73,66,30.04,29.94,29,11,35,0.00
2013-10-1,79.8,75.7,72.6,69.2,66.3,62.3,82,73,65,30.02,29.89,36,14,36,0.00
2013-10-2,79.9,75.9,73.6,68.2,66.0,62.9,77,72,63,29.99,29.87,32,13,32,0.00
2013-10-3,79.8,76.2,72.9,67.9,65.8,63.1,77,70,63,29.99,29.89,30,10,30,0.00
2013-10-4,78.2,74.6,72.2,68.2,66.6,64.3,86,76,69,30.00,29.91,36,21,43,0.00
2013-10-5,77.7,73.9,69.8,66.9,64.8,62.3,89,74,62,30.02,29.88,46,21,46,0.00
2013-10-6,76.0,73.1,69.4,68.4,65.6,62.8,87,77,67,30.02,29.92,40,19,40,0.01
2013-10-7,77.3,75.6,74.0,68.4,65.7,62.0,76,72,63,30.03,29.96,45,20,45,0.00
2013-10-8,73.4,72.9,71.7,67.4,63.6,61.6,85,73,67,30.06,30.02,37,18,37,0.00
2013-10-9,76.8,73.7,72.0,68.3,65.9,63.2,83,77,68,30.06,29.92,40,20,41,0.00
2013-10-10,77.1,74.4,71.8,68.3,65.9,63.5,80,75,70,30.01,29.89,34,12,36,0.00
2013-10-11,82.3,75.7,72.0,70.9,68.2,64.4,88,78,68,30.04,29.92,16,4,18,0.00
2013-10-12,77.8,74.4,72.4,71.8,68.6,66.6,86,82,77,30.03,29.98,18,6,18,0.00
2013-10-13,80.6,77.1,73.1,70.9,68.9,65.4,81,76,71,30.00,29.90,26,9,27,0.00
2013-10-14,77.0,74.5,72.1,68.9,66.6,63.8,81,76,69,29.98,29.94,23,6,23,0.00
2013-10-15,74.5,73.9,72.2,65.4,64.4,62.7,75,72,69,29.96,29.94,23,12,23,0.00
2013-10-16,76.1,74.1,71.3,67.9,65.8,63.7,82,75,70,30.01,29.88,32,16,35,0.00
2013-10-17,81.7,74.9,71.1,69.3,67.2,63.8,87,77,65,30.02,29.92,16,4,18,0.00
2013-10-18,81.7,75.1,72.0,70.5,67.2,62.9,87,77,62,29.99,29.88,17,2,17,0.00
2013-10-19,82.0,73.1,70.8,69.4,67.1,63.6,87,82,61,29.91,29.86,23,3,23,0.00
2013-10-20,80.0,73.7,70.8,70.0,68.2,65.5,88,83,68,29.93,29.88,17,4,17,0.03
2013-10-21,75.5,72.5,70.5,67.1,65.3,64.0,82,78,69,29.98,29.94,16,6,17,0.00
2013-10-22,76.4,73.7,70.9,68.3,66.3,62.1,88,78,64,30.01,29.91,27,15,30,0.00
2013-10-23,77.3,73.4,71.5,67.5,66.2,61.2,86,78,60,30.03,29.91,27,14,28,0.00
2013-10-24,76.0,73.9,72.2,67.7,65.0,60.2,81,74,63,30.01,29.89,31,14,32,0.00
2013-10-25,77.8,75.1,73.0,69.1,66.1,61.4,82,74,60,30.03,29.90,33,11,33,0.00
2013-10-26,81.3,75.0,72.3,70.1,67.2,65.1,83,77,64,30.03,29.98,15,3,15,0.00
2013-10-27,79.0,76.4,74.9,70.5,69.4,67.5,85,79,68,30.04,30.02,15,7,15,0.00
2013-10-28,77.3,75.0,72.8,69.5,66.3,59.7,85,75,59,30.06,29.92,37,18,37,0.00
2013-10-29,75.3,73.2,71.6,68.0,66.1,61.7,84,79,67,30.09,29.96,36,18,38,0.00
2013-10-30,75.6,73.2,70.2,69.4,66.9,64.1,86,81,73,30.10,30.00,26,13,33,0.09
2013-10-31,77.4,74.4,70.4,68.7,66.2,61.3,89,76,62,30.11,30.00,34,16,34,0.00
2013-11-1,74.7,72.3,69.8,68.3,66.9,65.1,89,83,74,30.10,29.95,50,22,50,0.00
2013-11-2,74.8,72.5,70.0,67.8,66.1,63.1,91,81,71,30.09,29.96,42,28,42,0.00
2013-11-3,74.9,72.8,71.0,66.9,65.7,64.2,85,79,71,30.07,29.93,43,26,45,0.00
2013-11-4,75.0,72.4,70.8,67.7,66.0,63.5,85,80,69,30.05,29.92,35,17,37,0.00
2013-11-5,76.0,73.1,68.9,68.8,65.9,63.8,92,78,69,30.03,29.90,32,15,32,0.00
2013-11-6,76.5,73.7,72.2,67.3,64.4,60.9,82,73,59,30.00,29.87,26,12,27,0.00
2013-11-7,77.8,74.6,72.2,69.7,65.5,61.2,87,74,65,30.00,29.88,30,9,31,0.04
2013-11-8,79.0,75.0,72.7,69.3,65.6,53.4,81,73,47,29.98,29.84,40,14,42,0.00
2013-11-9,74.0,71.3,67.4,69.0,65.9,62.2,94,83,68,29.93,29.83,32,14,35,0.09
2013-11-10,70.3,68.0,65.4,66.7,64.7,62.8,96,89,79,30.00,29.83,42,22,43,2.16
2013-11-11,71.1,68.8,66.4,64.0,60.7,58.3,87,76,68,30.00,29.89,38,18,39,0.00
2013-11-12,69.0,68.7,68.4,59.1,58.6,58.2,71,70,69,29.98,29.94,16,8,22,0.00
2013-11-13,72.4,70.9,67.6,66.1,63.9,61.2,86,79,74,30.03,29.91,25,10,26,0.04
2013-11-14,74.0,71.2,67.1,69.2,66.9,63.7,93,86,74,30.03,29.92,22,9,22,0.47
2013-11-15,79.7,75.5,72.1,71.0,68.1,65.3,91,78,66,30.05,29.96,36,9,36,0.47
2013-11-16,76.1,73.5,71.9,69.0,66.7,64.8,84,79,73,30.05,29.93,35,13,37,0.00
2013-11-17,79.3,74.4,70.9,68.7,65.9,62.5,82,75,65,30.01,29.90,18,5,22,0.00
2013-11-18,80.6,74.8,71.5,69.3,65.7,58.7,85,74,61,30.00,29.88,14,4,15,0.00
2013-11-19,80.0,74.1,69.8,69.3,66.0,58.7,82,76,67,30.00,29.87,16,3,16,0.00
2013-11-20,79.0,73.8,70.9,69.4,66.2,61.8,85,77,70,30.02,29.91,13,4,13,0.00
2013-11-21,76.6,73.3,71.6,69.5,67.0,63.8,89,81,71,30.05,29.93,18,5,19,0.00
2013-11-22,75.2,72.0,70.0,69.3,65.1,61.9,87,79,69,30.06,29.95,23,7,28,0.00
2013-11-23,72.3,69.8,68.6,65.4,62.2,56.5,87,77,65,30.04,29.90,32,15,32,0.04
2013-11-24,72.1,69.7,67.6,63.4,59.8,55.5,81,71,61,30.01,29.90,28,14,32,0.00
2013-11-25,72.3,70.4,68.7,65.5,63.0,59.3,84,78,71,30.08,29.93,36,20,43,0.00
2013-11-26,75.4,71.7,70.0,67.6,65.6,63.3,85,81,72,30.10,29.97,35,19,43,0.00
2013-11-27,76.6,72.4,69.7,66.5,62.9,55.7,83,72,56,30.11,29.96,26,10,37,0.00
2013-11-28,75.7,72.4,69.9,66.9,64.4,61.5,82,76,69,30.03,29.90,17,5,21,0.00
2013-11-29,77.3,73.1,69.3,67.2,64.1,60.8,80,74,64,29.98,29.86,17,4,24,0.00
2013-11-30,76.9,73.4,71.0,68.5,66.2,62.3,88,79,63,30.00,29.90,17,5,24,0.04
2013-12-1,79.8,74.4,70.6,69.7,66.0,62.3,87,75,63,30.01,29.88,20,5,25,0.00
2013-12-2,75.1,72.4,70.2,68.7,66.0,62.1,88,80,72,30.03,29.92,13,3,16,0.00
2013-12-3,77.0,73.6,70.8,66.9,64.2,61.1,81,73,64,30.00,29.88,19,4,19,0.00
2013-12-4,75.2,72.3,69.1,63.4,60.9,55.7,77,67,56,30.00,29.86,32,11,32,0.00
2013-12-5,76.1,72.3,67.8,66.1,62.8,57.8,81,72,63,30.03,29.92,13,4,20,0.00
2013-12-6,74.4,71.7,69.8,66.3,63.2,58.8,82,75,66,30.02,29.93,28,8,28,0.00
2013-12-7,76.6,73.4,70.4,68.1,65.1,59.3,85,76,60,30.01,29.89,21,5,21,0.00
2013-12-8,81.4,75.2,71.5,68.9,65.5,60.2,86,72,54,30.07,29.93,21,5,25,0.00
2013-12-9,80.3,75.0,71.1,70.6,68.3,65.0,88,80,69,30.09,29.97,33,8,33,0.00
2013-12-10,79.5,72.3,68.3,68.1,65.2,58.1,94,79,49,30.07,29.91,46,26,46,0.00
2013-12-11,73.3,72.0,71.3,65.0,63.1,61.0,80,74,68,30.00,29.96,45,23,45,0.00
2013-12-12,75.0,73.1,70.8,67.5,65.4,62.6,84,77,70,30.08,29.93,24,9,24,0.00
2013-12-13,77.5,72.9,69.8,67.3,64.8,61.5,84,76,67,30.08,29.96,34,6,34,0.00
2013-12-14,78.3,72.3,69.0,66.9,63.4,59.6,81,74,65,30.02,29.90,25,5,27,0.00
2013-12-15,76.5,71.2,68.5,64.3,62.1,59.5,82,73,61,29.99,29.85,14,3,14,0.00
2013-12-16,76.4,70.9,67.7,66.6,63.9,59.7,88,79,67,30.01,29.90,19,6,23,0.00
2013-12-17,72.3,70.2,68.8,65.7,62.9,58.7,87,78,65,30.06,29.95,23,12,27,0.00
2013-12-18,72.5,70.0,67.6,65.8,62.9,59.5,85,78,65,30.06,29.96,24,11,26,0.06
2013-12-19,75.8,71.4,68.7,65.1,62.4,60.0,83,74,61,30.07,29.96,37,13,38,0.00
2013-12-20,75.0,72.3,69.9,67.0,63.5,58.8,82,74,64,30.07,29.92,40,10,40,0.00
2013-12-21,73.8,71.6,70.1,66.6,64.3,61.5,85,78,66,30.03,29.93,27,11,29,0.00
2013-12-22,73.9,70.7,68.5,65.9,63.9,60.9,89,79,70,30.02,29.95,25,9,25,0.00
2013-12-23,73.3,71.2,68.6,66.4,64.2,60.4,86,79,65,30.08,29.92,43,18,44,0.00
2013-12-24,73.3,70.5,68.8,66.2,64.9,63.1,89,82,73,30.09,29.96,37,21,38,0.00
2013-12-25,72.5,70.1,68.7,66.2,64.8,63.1,87,83,76,30.07,29.95,35,21,36,0.00
2013-12-26,72.3,69.9,67.0,66.0,64.7,61.9,92,84,72,30.03,29.88,40,24,41,0.00
2013-12-27,71.4,69.2,65.6,66.8,64.6,60.2,94,86,73,30.01,29.86,43,23,43,0.09
2013-12-28,71.8,69.5,66.6,67.6,66.3,64.5,95,90,84,29.98,29.89,36,20,36,0.60
2013-12-29,70.4,69.5,68.8,65.4,65.0,64.1,88,86,82,30.02,29.91,36,20,36,0.32
2013-12-30,66.5,66.0,64.8,64.1,63.8,63.3,95,92,91,30.03,29.99,26,16,27,0.00
2013-12-31,66.6,66.6,66.6,63.9,63.9,63.9,91,91,91,30.02,30.02,15,15,15,0.00